sensor_id;sensor_type;location;lat;lon;timestamp;P1;durP1;ratioP1;P2;durP2;ratioP2
78116;SDS011;67887;59.082;37.928;2023-02-24T00:01:59;8.68;;;3.58;;
78116;SDS011;67887;59.082;37.928;2023-02-24T00:04:31;9.77;;;3.42;;
78116;SDS011;67887;59.082;37.928;2023-02-24T00:09:26;6.82;;;2.85;;
78116;SDS011;67887;59.082;37.928;2023-02-24T00:12:00;9.70;;;3.50;;
78116;SDS011;67887;59.082;37.928;2023-02-24T00:14:34;10.95;;;3.75;;
78116;SDS011;67887;59.082;37.928;2023-02-24T00:17:02;9.85;;;3.47;;
78116;SDS011;67887;59.082;37.928;2023-02-24T00:19:29;9.35;;;3.30;;
78116;SDS011;67887;59.082;37.928;2023-02-24T00:21:59;9.48;;;3.45;;
78116;SDS011;67887;59.082;37.928;2023-02-24T00:24:26;9.43;;;3.40;;
78116;SDS011;67887;59.082;37.928;2023-02-24T00:26:54;9.13;;;3.42;;
78116;SDS011;67887;59.082;37.928;2023-02-24T00:31:49;8.30;;;3.22;;
78116;SDS011;67887;59.082;37.928;2023-02-24T00:34:27;10.43;;;3.92;;
78116;SDS011;67887;59.082;37.928;2023-02-24T00:36:56;7.95;;;3.35;;
78116;SDS011;67887;59.082;37.928;2023-02-24T00:39:22;9.68;;;3.10;;
78116;SDS011;67887;59.082;37.928;2023-02-24T00:41:57;6.97;;;3.08;;
78116;SDS011;67887;59.082;37.928;2023-02-24T00:44:40;9.80;;;3.35;;
78116;SDS011;67887;59.082;37.928;2023-02-24T00:47:09;8.38;;;3.50;;
78116;SDS011;67887;59.082;37.928;2023-02-24T00:49:37;9.05;;;2.80;;
78116;SDS011;67887;59.082;37.928;2023-02-24T00:52:13;9.30;;;3.72;;
78116;SDS011;67887;59.082;37.928;2023-02-24T00:54:42;8.10;;;3.42;;
78116;SDS011;67887;59.082;37.928;2023-02-24T00:57:10;10.07;;;3.13;;
78116;SDS011;67887;59.082;37.928;2023-02-24T00:59:37;9.88;;;3.90;;
78116;SDS011;67887;59.082;37.928;2023-02-24T01:02:05;9.98;;;3.55;;
78116;SDS011;67887;59.082;37.928;2023-02-24T01:04:36;8.40;;;3.42;;
78116;SDS011;67887;59.082;37.928;2023-02-24T01:07:03;8.00;;;3.13;;
78116;SDS011;67887;59.082;37.928;2023-02-24T01:09:35;9.02;;;3.20;;
78116;SDS011;67887;59.082;37.928;2023-02-24T01:12:05;11.48;;;3.50;;
78116;SDS011;67887;59.082;37.928;2023-02-24T01:14:52;8.20;;;3.40;;
78116;SDS011;67887;59.082;37.928;2023-02-24T01:17:19;8.52;;;3.20;;
78116;SDS011;67887;59.082;37.928;2023-02-24T01:19:46;7.25;;;3.13;;
78116;SDS011;67887;59.082;37.928;2023-02-24T01:22:18;8.82;;;3.63;;
78116;SDS011;67887;59.082;37.928;2023-02-24T01:24:44;9.18;;;3.35;;
78116;SDS011;67887;59.082;37.928;2023-02-24T01:27:12;7.28;;;3.05;;
78116;SDS011;67887;59.082;37.928;2023-02-24T01:29:41;8.70;;;3.15;;
78116;SDS011;67887;59.082;37.928;2023-02-24T01:32:12;7.88;;;3.00;;
78116;SDS011;67887;59.082;37.928;2023-02-24T01:34:41;9.65;;;3.38;;
78116;SDS011;67887;59.082;37.928;2023-02-24T01:37:07;11.20;;;3.38;;
78116;SDS011;67887;59.082;37.928;2023-02-24T01:39:34;8.15;;;3.60;;
78116;SDS011;67887;59.082;37.928;2023-02-24T01:42:02;8.27;;;3.25;;
78116;SDS011;67887;59.082;37.928;2023-02-24T01:46:58;7.32;;;3.00;;
78116;SDS011;67887;59.082;37.928;2023-02-24T01:49:29;8.82;;;2.88;;
78116;SDS011;67887;59.082;37.928;2023-02-24T01:52:07;8.90;;;3.08;;
78116;SDS011;67887;59.082;37.928;2023-02-24T01:54:39;8.52;;;3.35;;
78116;SDS011;67887;59.082;37.928;2023-02-24T01:57:10;8.10;;;3.63;;
78116;SDS011;67887;59.082;37.928;2023-02-24T01:59:42;7.93;;;3.28;;
78116;SDS011;67887;59.082;37.928;2023-02-24T02:02:10;9.18;;;3.50;;
78116;SDS011;67887;59.082;37.928;2023-02-24T02:04:41;7.05;;;3.30;;
78116;SDS011;67887;59.082;37.928;2023-02-24T02:07:13;8.05;;;3.17;;
78116;SDS011;67887;59.082;37.928;2023-02-24T02:09:42;9.18;;;3.53;;
78116;SDS011;67887;59.082;37.928;2023-02-24T02:12:10;7.50;;;3.05;;
78116;SDS011;67887;59.082;37.928;2023-02-24T02:14:37;9.02;;;3.30;;
78116;SDS011;67887;59.082;37.928;2023-02-24T02:19:55;7.32;;;3.20;;
78116;SDS011;67887;59.082;37.928;2023-02-24T02:27:49;8.35;;;3.10;;
78116;SDS011;67887;59.082;37.928;2023-02-24T02:30:53;8.40;;;3.03;;
78116;SDS011;67887;59.082;37.928;2023-02-24T02:36:34;8.20;;;2.95;;
78116;SDS011;67887;59.082;37.928;2023-02-24T02:47:20;8.98;;;3.00;;
78116;SDS011;67887;59.082;37.928;2023-02-24T02:49:54;7.95;;;3.10;;
78116;SDS011;67887;59.082;37.928;2023-02-24T02:52:28;8.68;;;2.85;;
78116;SDS011;67887;59.082;37.928;2023-02-24T02:55:01;8.60;;;2.92;;
78116;SDS011;67887;59.082;37.928;2023-02-24T02:57:36;9.35;;;3.38;;
78116;SDS011;67887;59.082;37.928;2023-02-24T03:00:09;6.40;;;2.63;;
78116;SDS011;67887;59.082;37.928;2023-02-24T03:02:50;9.02;;;2.97;;
78116;SDS011;67887;59.082;37.928;2023-02-24T03:05:21;7.85;;;3.00;;
78116;SDS011;67887;59.082;37.928;2023-02-24T03:07:59;7.18;;;3.05;;
78116;SDS011;67887;59.082;37.928;2023-02-24T03:10:29;7.32;;;2.40;;
78116;SDS011;67887;59.082;37.928;2023-02-24T03:12:59;7.85;;;2.90;;
78116;SDS011;67887;59.082;37.928;2023-02-24T03:15:29;7.38;;;2.30;;
78116;SDS011;67887;59.082;37.928;2023-02-24T03:18:02;7.78;;;2.72;;
78116;SDS011;67887;59.082;37.928;2023-02-24T03:20:37;7.50;;;2.95;;
78116;SDS011;67887;59.082;37.928;2023-02-24T03:23:13;8.00;;;2.70;;
78116;SDS011;67887;59.082;37.928;2023-02-24T03:25:46;8.68;;;2.60;;
78116;SDS011;67887;59.082;37.928;2023-02-24T03:28:26;7.10;;;2.33;;
78116;SDS011;67887;59.082;37.928;2023-02-24T03:31:45;7.32;;;2.67;;
78116;SDS011;67887;59.082;37.928;2023-02-24T03:36:33;6.50;;;2.53;;
78116;SDS011;67887;59.082;37.928;2023-02-24T03:38:59;7.07;;;2.63;;
78116;SDS011;67887;59.082;37.928;2023-02-24T03:41:29;6.90;;;2.65;;
78116;SDS011;67887;59.082;37.928;2023-02-24T03:44:04;6.97;;;2.65;;
78116;SDS011;67887;59.082;37.928;2023-02-24T03:46:34;6.55;;;2.58;;
78116;SDS011;67887;59.082;37.928;2023-02-24T03:49:04;7.40;;;2.95;;
78116;SDS011;67887;59.082;37.928;2023-02-24T03:51:37;7.05;;;2.60;;
78116;SDS011;67887;59.082;37.928;2023-02-24T03:57:36;7.22;;;3.03;;
78116;SDS011;67887;59.082;37.928;2023-02-24T04:03:08;7.57;;;2.60;;
78116;SDS011;67887;59.082;37.928;2023-02-24T04:06:02;7.50;;;2.65;;
78116;SDS011;67887;59.082;37.928;2023-02-24T04:08:38;6.93;;;3.10;;
78116;SDS011;67887;59.082;37.928;2023-02-24T04:11:16;7.32;;;2.60;;
78116;SDS011;67887;59.082;37.928;2023-02-24T04:14:07;8.23;;;2.83;;
78116;SDS011;67887;59.082;37.928;2023-02-24T04:16:40;7.60;;;2.60;;
78116;SDS011;67887;59.082;37.928;2023-02-24T04:19:15;6.97;;;2.55;;
78116;SDS011;67887;59.082;37.928;2023-02-24T04:21:45;6.82;;;3.05;;
78116;SDS011;67887;59.082;37.928;2023-02-24T04:24:21;7.70;;;3.00;;
78116;SDS011;67887;59.082;37.928;2023-02-24T04:26:50;7.75;;;2.40;;
78116;SDS011;67887;59.082;37.928;2023-02-24T04:29:20;7.20;;;2.92;;
78116;SDS011;67887;59.082;37.928;2023-02-24T04:31:59;7.32;;;3.05;;
78116;SDS011;67887;59.082;37.928;2023-02-24T04:34:29;8.55;;;2.97;;
78116;SDS011;67887;59.082;37.928;2023-02-24T04:36:58;7.55;;;2.80;;
78116;SDS011;67887;59.082;37.928;2023-02-24T04:39:27;8.85;;;3.60;;
78116;SDS011;67887;59.082;37.928;2023-02-24T04:41:57;8.57;;;3.20;;
78116;SDS011;67887;59.082;37.928;2023-02-24T04:44:23;7.07;;;3.15;;
78116;SDS011;67887;59.082;37.928;2023-02-24T04:46:50;7.13;;;2.95;;
78116;SDS011;67887;59.082;37.928;2023-02-24T04:49:17;9.30;;;3.10;;
78116;SDS011;67887;59.082;37.928;2023-02-24T04:51:44;8.57;;;3.00;;
78116;SDS011;67887;59.082;37.928;2023-02-24T04:54:11;6.88;;;2.72;;
78116;SDS011;67887;59.082;37.928;2023-02-24T04:56:42;7.43;;;2.80;;
78116;SDS011;67887;59.082;37.928;2023-02-24T04:59:19;8.52;;;2.95;;
78116;SDS011;67887;59.082;37.928;2023-02-24T05:01:46;6.70;;;2.80;;
78116;SDS011;67887;59.082;37.928;2023-02-24T05:04:16;7.97;;;2.97;;
78116;SDS011;67887;59.082;37.928;2023-02-24T05:06:42;7.95;;;3.00;;
78116;SDS011;67887;59.082;37.928;2023-02-24T05:09:10;7.78;;;2.72;;
78116;SDS011;67887;59.082;37.928;2023-02-24T05:14:12;9.13;;;3.22;;
78116;SDS011;67887;59.082;37.928;2023-02-24T05:16:40;9.77;;;3.00;;
78116;SDS011;67887;59.082;37.928;2023-02-24T05:19:14;7.75;;;2.80;;
78116;SDS011;67887;59.082;37.928;2023-02-24T05:22:00;7.05;;;3.03;;
78116;SDS011;67887;59.082;37.928;2023-02-24T05:24:31;8.15;;;2.97;;
78116;SDS011;67887;59.082;37.928;2023-02-24T05:26:59;7.97;;;2.80;;
78116;SDS011;67887;59.082;37.928;2023-02-24T05:29:25;7.72;;;3.00;;
78116;SDS011;67887;59.082;37.928;2023-02-24T05:31:53;6.85;;;2.83;;
78116;SDS011;67887;59.082;37.928;2023-02-24T05:34:25;8.35;;;3.22;;
78116;SDS011;67887;59.082;37.928;2023-02-24T05:36:56;8.88;;;3.53;;
78116;SDS011;67887;59.082;37.928;2023-02-24T05:39:23;8.68;;;3.40;;
78116;SDS011;67887;59.082;37.928;2023-02-24T05:41:53;8.43;;;3.58;;
78116;SDS011;67887;59.082;37.928;2023-02-24T05:44:22;8.35;;;3.58;;
78116;SDS011;67887;59.082;37.928;2023-02-24T05:46:54;8.55;;;3.53;;
78116;SDS011;67887;59.082;37.928;2023-02-24T05:49:25;8.73;;;3.50;;
78116;SDS011;67887;59.082;37.928;2023-02-24T05:51:56;8.88;;;3.63;;
78116;SDS011;67887;59.082;37.928;2023-02-24T05:54:26;8.00;;;3.30;;
78116;SDS011;67887;59.082;37.928;2023-02-24T05:57:00;11.52;;;3.53;;
78116;SDS011;67887;59.082;37.928;2023-02-24T05:59:28;11.50;;;3.67;;
78116;SDS011;67887;59.082;37.928;2023-02-24T06:02:02;10.25;;;3.60;;
78116;SDS011;67887;59.082;37.928;2023-02-24T06:04:38;8.55;;;3.47;;
78116;SDS011;67887;59.082;37.928;2023-02-24T06:07:17;7.97;;;3.47;;
78116;SDS011;67887;59.082;37.928;2023-02-24T06:09:44;9.73;;;3.88;;
78116;SDS011;67887;59.082;37.928;2023-02-24T06:12:14;9.20;;;3.22;;
78116;SDS011;67887;59.082;37.928;2023-02-24T06:14:41;7.82;;;3.20;;
78116;SDS011;67887;59.082;37.928;2023-02-24T06:17:07;9.75;;;3.50;;
78116;SDS011;67887;59.082;37.928;2023-02-24T06:19:33;9.50;;;3.85;;
78116;SDS011;67887;59.082;37.928;2023-02-24T06:22:00;8.95;;;3.22;;
78116;SDS011;67887;59.082;37.928;2023-02-24T06:24:28;9.45;;;3.40;;
78116;SDS011;67887;59.082;37.928;2023-02-24T06:26:55;10.02;;;3.85;;
78116;SDS011;67887;59.082;37.928;2023-02-24T06:29:34;9.70;;;4.43;;
78116;SDS011;67887;59.082;37.928;2023-02-24T06:32:02;9.23;;;3.45;;
78116;SDS011;67887;59.082;37.928;2023-02-24T06:34:36;7.65;;;3.53;;
78116;SDS011;67887;59.082;37.928;2023-02-24T06:37:03;8.77;;;3.70;;
78116;SDS011;67887;59.082;37.928;2023-02-24T06:39:31;8.35;;;3.55;;
78116;SDS011;67887;59.082;37.928;2023-02-24T06:41:59;9.15;;;3.65;;
78116;SDS011;67887;59.082;37.928;2023-02-24T06:44:29;9.73;;;3.83;;
78116;SDS011;67887;59.082;37.928;2023-02-24T06:46:57;7.90;;;3.50;;
78116;SDS011;67887;59.082;37.928;2023-02-24T06:49:23;8.63;;;3.33;;
78116;SDS011;67887;59.082;37.928;2023-02-24T06:51:49;7.65;;;3.38;;
78116;SDS011;67887;59.082;37.928;2023-02-24T06:54:17;9.52;;;3.55;;
78116;SDS011;67887;59.082;37.928;2023-02-24T06:56:43;9.82;;;3.88;;
78116;SDS011;67887;59.082;37.928;2023-02-24T06:59:09;8.75;;;3.50;;
78116;SDS011;67887;59.082;37.928;2023-02-24T07:01:37;9.25;;;3.97;;
78116;SDS011;67887;59.082;37.928;2023-02-24T07:04:10;8.60;;;3.85;;
78116;SDS011;67887;59.082;37.928;2023-02-24T07:06:37;9.18;;;4.00;;
78116;SDS011;67887;59.082;37.928;2023-02-24T07:09:09;13.30;;;4.13;;
78116;SDS011;67887;59.082;37.928;2023-02-24T07:11:38;10.38;;;4.00;;
78116;SDS011;67887;59.082;37.928;2023-02-24T07:14:10;9.20;;;4.15;;
78116;SDS011;67887;59.082;37.928;2023-02-24T07:16:38;10.25;;;3.78;;
78116;SDS011;67887;59.082;37.928;2023-02-24T07:19:13;8.32;;;3.85;;
78116;SDS011;67887;59.082;37.928;2023-02-24T07:21:41;7.07;;;3.45;;
78116;SDS011;67887;59.082;37.928;2023-02-24T07:24:13;11.70;;;4.03;;
78116;SDS011;67887;59.082;37.928;2023-02-24T07:26:56;10.52;;;4.00;;
78116;SDS011;67887;59.082;37.928;2023-02-24T07:29:24;9.23;;;3.85;;
78116;SDS011;67887;59.082;37.928;2023-02-24T07:31:51;8.48;;;4.03;;
78116;SDS011;67887;59.082;37.928;2023-02-24T07:34:22;10.75;;;4.10;;
78116;SDS011;67887;59.082;37.928;2023-02-24T07:36:52;9.52;;;4.15;;
78116;SDS011;67887;59.082;37.928;2023-02-24T07:39:19;10.68;;;4.00;;
78116;SDS011;67887;59.082;37.928;2023-02-24T07:41:51;10.65;;;4.13;;
78116;SDS011;67887;59.082;37.928;2023-02-24T07:44:20;11.00;;;4.38;;
78116;SDS011;67887;59.082;37.928;2023-02-24T07:46:48;10.57;;;3.95;;
78116;SDS011;67887;59.082;37.928;2023-02-24T07:49:16;9.95;;;4.20;;
78116;SDS011;67887;59.082;37.928;2023-02-24T07:51:45;8.82;;;3.88;;
78116;SDS011;67887;59.082;37.928;2023-02-24T07:54:20;10.68;;;3.95;;
78116;SDS011;67887;59.082;37.928;2023-02-24T07:56:50;12.32;;;3.95;;
78116;SDS011;67887;59.082;37.928;2023-02-24T08:01:55;9.57;;;4.40;;
78116;SDS011;67887;59.082;37.928;2023-02-24T08:04:25;11.15;;;4.15;;
78116;SDS011;67887;59.082;37.928;2023-02-24T08:06:57;10.82;;;3.67;;
78116;SDS011;67887;59.082;37.928;2023-02-24T08:09:31;9.43;;;3.85;;
78116;SDS011;67887;59.082;37.928;2023-02-24T08:12:14;10.35;;;4.20;;
78116;SDS011;67887;59.082;37.928;2023-02-24T08:14:46;8.88;;;4.13;;
78116;SDS011;67887;59.082;37.928;2023-02-24T08:17:16;9.27;;;4.05;;
78116;SDS011;67887;59.082;37.928;2023-02-24T08:19:47;9.98;;;4.05;;
78116;SDS011;67887;59.082;37.928;2023-02-24T08:22:16;9.40;;;4.00;;
78116;SDS011;67887;59.082;37.928;2023-02-24T08:24:50;9.68;;;3.78;;
78116;SDS011;67887;59.082;37.928;2023-02-24T08:27:18;11.18;;;4.22;;
78116;SDS011;67887;59.082;37.928;2023-02-24T08:29:48;10.57;;;4.50;;
78116;SDS011;67887;59.082;37.928;2023-02-24T08:32:27;11.15;;;4.43;;
78116;SDS011;67887;59.082;37.928;2023-02-24T08:35:03;11.15;;;4.25;;
78116;SDS011;67887;59.082;37.928;2023-02-24T08:40:48;11.75;;;5.15;;
78116;SDS011;67887;59.082;37.928;2023-02-24T08:45:46;10.40;;;3.83;;
78116;SDS011;67887;59.082;37.928;2023-02-24T08:48:32;11.63;;;4.25;;
78116;SDS011;67887;59.082;37.928;2023-02-24T08:51:09;9.52;;;4.30;;
78116;SDS011;67887;59.082;37.928;2023-02-24T08:53:40;8.93;;;3.90;;
78116;SDS011;67887;59.082;37.928;2023-02-24T08:56:09;10.88;;;4.43;;
78116;SDS011;67887;59.082;37.928;2023-02-24T08:58:37;10.38;;;4.15;;
78116;SDS011;67887;59.082;37.928;2023-02-24T09:01:08;10.63;;;4.22;;
78116;SDS011;67887;59.082;37.928;2023-02-24T09:03:47;10.23;;;4.28;;
78116;SDS011;67887;59.082;37.928;2023-02-24T09:06:17;9.55;;;4.15;;
78116;SDS011;67887;59.082;37.928;2023-02-24T09:08:53;9.60;;;4.00;;
78116;SDS011;67887;59.082;37.928;2023-02-24T09:11:39;10.02;;;4.32;;
78116;SDS011;67887;59.082;37.928;2023-02-24T09:14:09;9.85;;;4.38;;
78116;SDS011;67887;59.082;37.928;2023-02-24T09:16:42;9.85;;;4.40;;
78116;SDS011;67887;59.082;37.928;2023-02-24T09:22:05;9.65;;;4.45;;
78116;SDS011;67887;59.082;37.928;2023-02-24T09:24:40;10.57;;;4.65;;
78116;SDS011;67887;59.082;37.928;2023-02-24T09:27:06;11.88;;;4.57;;
78116;SDS011;67887;59.082;37.928;2023-02-24T09:29:33;9.32;;;4.32;;
78116;SDS011;67887;59.082;37.928;2023-02-24T09:32:00;10.93;;;4.35;;
78116;SDS011;67887;59.082;37.928;2023-02-24T09:36:57;9.50;;;4.32;;
78116;SDS011;67887;59.082;37.928;2023-02-24T09:39:30;9.95;;;4.30;;
78116;SDS011;67887;59.082;37.928;2023-02-24T09:42:36;10.75;;;4.68;;
78116;SDS011;67887;59.082;37.928;2023-02-24T09:45:19;9.50;;;4.32;;
78116;SDS011;67887;59.082;37.928;2023-02-24T09:48:00;10.52;;;4.75;;
78116;SDS011;67887;59.082;37.928;2023-02-24T09:50:35;11.15;;;4.50;;
78116;SDS011;67887;59.082;37.928;2023-02-24T09:53:27;9.02;;;4.13;;
78116;SDS011;67887;59.082;37.928;2023-02-24T09:56:04;10.85;;;4.85;;
78116;SDS011;67887;59.082;37.928;2023-02-24T09:58:51;9.07;;;4.38;;
78116;SDS011;67887;59.082;37.928;2023-02-24T10:01:49;8.95;;;4.38;;
78116;SDS011;67887;59.082;37.928;2023-02-24T10:07:28;11.10;;;4.97;;
78116;SDS011;67887;59.082;37.928;2023-02-24T10:13:11;10.45;;;4.45;;
78116;SDS011;67887;59.082;37.928;2023-02-24T10:15:43;9.80;;;4.88;;
78116;SDS011;67887;59.082;37.928;2023-02-24T10:18:26;9.35;;;4.45;;
78116;SDS011;67887;59.082;37.928;2023-02-24T10:29:28;10.82;;;5.13;;
78116;SDS011;67887;59.082;37.928;2023-02-24T10:34:48;10.23;;;4.57;;
78116;SDS011;67887;59.082;37.928;2023-02-24T10:37:17;10.77;;;4.60;;
78116;SDS011;67887;59.082;37.928;2023-02-24T10:39:45;11.05;;;4.85;;
78116;SDS011;67887;59.082;37.928;2023-02-24T10:45:36;12.07;;;4.75;;
78116;SDS011;67887;59.082;37.928;2023-02-24T10:47:56;11.57;;;5.30;;
78116;SDS011;67887;59.082;37.928;2023-02-24T10:50:38;11.00;;;5.05;;
78116;SDS011;67887;59.082;37.928;2023-02-24T10:53:13;11.52;;;5.43;;
78116;SDS011;67887;59.082;37.928;2023-02-24T10:55:54;11.10;;;4.97;;
78116;SDS011;67887;59.082;37.928;2023-02-24T10:59:02;11.90;;;5.47;;
78116;SDS011;67887;59.082;37.928;2023-02-24T11:01:59;9.73;;;4.65;;
78116;SDS011;67887;59.082;37.928;2023-02-24T11:04:32;11.20;;;4.90;;
78116;SDS011;67887;59.082;37.928;2023-02-24T11:07:29;10.15;;;4.90;;
78116;SDS011;67887;59.082;37.928;2023-02-24T11:10:17;9.68;;;4.50;;
78116;SDS011;67887;59.082;37.928;2023-02-24T11:12:54;10.20;;;4.95;;
78116;SDS011;67887;59.082;37.928;2023-02-24T11:15:43;11.15;;;4.82;;
78116;SDS011;67887;59.082;37.928;2023-02-24T11:18:29;10.63;;;4.95;;
78116;SDS011;67887;59.082;37.928;2023-02-24T11:23:26;11.60;;;5.35;;
78116;SDS011;67887;59.082;37.928;2023-02-24T11:26:05;10.45;;;4.80;;
78116;SDS011;67887;59.082;37.928;2023-02-24T11:29:00;12.10;;;5.18;;
78116;SDS011;67887;59.082;37.928;2023-02-24T11:39:49;11.07;;;5.05;;
78116;SDS011;67887;59.082;37.928;2023-02-24T11:42:38;10.25;;;4.90;;
78116;SDS011;67887;59.082;37.928;2023-02-24T11:50:50;10.57;;;4.95;;
78116;SDS011;67887;59.082;37.928;2023-02-24T11:56:10;10.02;;;4.88;;
78116;SDS011;67887;59.082;37.928;2023-02-24T11:58:45;12.05;;;5.05;;
78116;SDS011;67887;59.082;37.928;2023-02-24T12:07:25;10.57;;;5.20;;
78116;SDS011;67887;59.082;37.928;2023-02-24T12:12:43;11.23;;;5.13;;
78116;SDS011;67887;59.082;37.928;2023-02-24T12:18:05;12.45;;;5.20;;
78116;SDS011;67887;59.082;37.928;2023-02-24T12:20:51;12.15;;;5.55;;
78116;SDS011;67887;59.082;37.928;2023-02-24T12:31:17;9.85;;;4.60;;
78116;SDS011;67887;59.082;37.928;2023-02-24T12:34:11;9.88;;;4.45;;
78116;SDS011;67887;59.082;37.928;2023-02-24T12:36:50;11.25;;;5.00;;
78116;SDS011;67887;59.082;37.928;2023-02-24T12:51:02;10.63;;;4.47;;
78116;SDS011;67887;59.082;37.928;2023-02-24T12:53:49;11.60;;;4.90;;
78116;SDS011;67887;59.082;37.928;2023-02-24T12:56:32;10.25;;;4.45;;
78116;SDS011;67887;59.082;37.928;2023-02-24T12:59:16;12.70;;;5.38;;
78116;SDS011;67887;59.082;37.928;2023-02-24T13:12:54;13.20;;;4.75;;
78116;SDS011;67887;59.082;37.928;2023-02-24T13:15:51;11.15;;;4.80;;
78116;SDS011;67887;59.082;37.928;2023-02-24T13:18:29;9.88;;;4.88;;
78116;SDS011;67887;59.082;37.928;2023-02-24T13:21:05;11.90;;;4.70;;
78116;SDS011;67887;59.082;37.928;2023-02-24T13:23:51;9.65;;;4.50;;
78116;SDS011;67887;59.082;37.928;2023-02-24T13:26:32;10.40;;;4.85;;
78116;SDS011;67887;59.082;37.928;2023-02-24T13:29:09;14.02;;;5.90;;
78116;SDS011;67887;59.082;37.928;2023-02-24T13:31:39;12.68;;;5.15;;
78116;SDS011;67887;59.082;37.928;2023-02-24T13:37:27;13.57;;;5.72;;
78116;SDS011;67887;59.082;37.928;2023-02-24T13:39:54;13.55;;;5.95;;
78116;SDS011;67887;59.082;37.928;2023-02-24T13:42:27;11.10;;;5.03;;
78116;SDS011;67887;59.082;37.928;2023-02-24T13:45:04;12.70;;;5.40;;
78116;SDS011;67887;59.082;37.928;2023-02-24T13:55:31;12.13;;;5.63;;
78116;SDS011;67887;59.082;37.928;2023-02-24T14:03:26;14.10;;;6.10;;
78116;SDS011;67887;59.082;37.928;2023-02-24T14:05:53;12.88;;;5.57;;
78116;SDS011;67887;59.082;37.928;2023-02-24T14:08:26;14.05;;;5.97;;
78116;SDS011;67887;59.082;37.928;2023-02-24T14:10:55;13.45;;;5.85;;
78116;SDS011;67887;59.082;37.928;2023-02-24T14:13:25;12.80;;;5.38;;
78116;SDS011;67887;59.082;37.928;2023-02-24T14:15:59;12.98;;;5.70;;
78116;SDS011;67887;59.082;37.928;2023-02-24T14:18:29;13.35;;;6.05;;
78116;SDS011;67887;59.082;37.928;2023-02-24T14:20:56;11.88;;;4.93;;
78116;SDS011;67887;59.082;37.928;2023-02-24T14:23:24;12.02;;;5.45;;
78116;SDS011;67887;59.082;37.928;2023-02-24T14:26:04;13.45;;;5.63;;
78116;SDS011;67887;59.082;37.928;2023-02-24T14:28:33;12.90;;;5.68;;
78116;SDS011;67887;59.082;37.928;2023-02-24T14:31:11;13.00;;;5.95;;
78116;SDS011;67887;59.082;37.928;2023-02-24T14:33:40;13.45;;;5.28;;
78116;SDS011;67887;59.082;37.928;2023-02-24T14:36:18;15.02;;;5.63;;
78116;SDS011;67887;59.082;37.928;2023-02-24T14:38:58;12.20;;;5.68;;
78116;SDS011;67887;59.082;37.928;2023-02-24T14:41:26;14.82;;;6.90;;
78116;SDS011;67887;59.082;37.928;2023-02-24T14:43:52;13.95;;;5.97;;
78116;SDS011;67887;59.082;37.928;2023-02-24T14:46:19;12.27;;;5.53;;
78116;SDS011;67887;59.082;37.928;2023-02-24T14:48:50;13.07;;;5.63;;
78116;SDS011;67887;59.082;37.928;2023-02-24T14:51:19;11.00;;;5.20;;
78116;SDS011;67887;59.082;37.928;2023-02-24T14:53:56;12.20;;;5.18;;
78116;SDS011;67887;59.082;37.928;2023-02-24T14:56:28;12.80;;;5.78;;
78116;SDS011;67887;59.082;37.928;2023-02-24T14:58:59;12.23;;;5.30;;
78116;SDS011;67887;59.082;37.928;2023-02-24T15:01:32;11.30;;;5.05;;
78116;SDS011;67887;59.082;37.928;2023-02-24T15:04:10;10.55;;;4.95;;
78116;SDS011;67887;59.082;37.928;2023-02-24T15:06:40;12.10;;;5.25;;
78116;SDS011;67887;59.082;37.928;2023-02-24T15:09:12;12.35;;;5.65;;
78116;SDS011;67887;59.082;37.928;2023-02-24T15:11:48;12.30;;;5.32;;
78116;SDS011;67887;59.082;37.928;2023-02-24T15:14:27;11.20;;;4.60;;
78116;SDS011;67887;59.082;37.928;2023-02-24T15:17:00;13.68;;;5.30;;
78116;SDS011;67887;59.082;37.928;2023-02-24T15:19:34;12.93;;;5.50;;
78116;SDS011;67887;59.082;37.928;2023-02-24T15:24:55;11.93;;;5.10;;
78116;SDS011;67887;59.082;37.928;2023-02-24T15:27:51;12.48;;;5.50;;
78116;SDS011;67887;59.082;37.928;2023-02-24T15:30:32;13.75;;;5.47;;
78116;SDS011;67887;59.082;37.928;2023-02-24T15:35:28;13.15;;;5.43;;
78116;SDS011;67887;59.082;37.928;2023-02-24T15:37:55;14.10;;;5.90;;
78116;SDS011;67887;59.082;37.928;2023-02-24T15:40:22;14.70;;;5.90;;
78116;SDS011;67887;59.082;37.928;2023-02-24T15:45:33;15.25;;;5.95;;
78116;SDS011;67887;59.082;37.928;2023-02-24T15:48:15;12.10;;;5.18;;
78116;SDS011;67887;59.082;37.928;2023-02-24T15:50:44;11.43;;;5.32;;
78116;SDS011;67887;59.082;37.928;2023-02-24T15:53:10;13.98;;;6.28;;
78116;SDS011;67887;59.082;37.928;2023-02-24T15:55:39;13.65;;;5.68;;
78116;SDS011;67887;59.082;37.928;2023-02-24T15:58:18;14.15;;;5.47;;
78116;SDS011;67887;59.082;37.928;2023-02-24T16:00:46;12.07;;;5.30;;
78116;SDS011;67887;59.082;37.928;2023-02-24T16:03:16;12.43;;;5.18;;
78116;SDS011;67887;59.082;37.928;2023-02-24T16:05:43;12.98;;;5.60;;
78116;SDS011;67887;59.082;37.928;2023-02-24T16:08:10;13.05;;;5.55;;
78116;SDS011;67887;59.082;37.928;2023-02-24T16:10:41;12.85;;;5.47;;
78116;SDS011;67887;59.082;37.928;2023-02-24T16:13:08;12.55;;;6.00;;
78116;SDS011;67887;59.082;37.928;2023-02-24T16:15:43;13.70;;;5.35;;
78116;SDS011;67887;59.082;37.928;2023-02-24T16:18:15;11.73;;;5.22;;
78116;SDS011;67887;59.082;37.928;2023-02-24T16:20:45;11.98;;;5.85;;
78116;SDS011;67887;59.082;37.928;2023-02-24T16:23:19;15.48;;;5.55;;
78116;SDS011;67887;59.082;37.928;2023-02-24T16:25:46;11.32;;;5.03;;
78116;SDS011;67887;59.082;37.928;2023-02-24T16:28:16;11.90;;;5.15;;
78116;SDS011;67887;59.082;37.928;2023-02-24T16:30:44;12.98;;;5.43;;
78116;SDS011;67887;59.082;37.928;2023-02-24T16:33:12;9.70;;;4.65;;
78116;SDS011;67887;59.082;37.928;2023-02-24T16:35:39;10.40;;;4.82;;
78116;SDS011;67887;59.082;37.928;2023-02-24T16:38:14;11.60;;;5.28;;
78116;SDS011;67887;59.082;37.928;2023-02-24T16:40:43;14.25;;;5.43;;
78116;SDS011;67887;59.082;37.928;2023-02-24T16:43:19;10.70;;;4.75;;
78116;SDS011;67887;59.082;37.928;2023-02-24T16:45:45;10.55;;;4.75;;
78116;SDS011;67887;59.082;37.928;2023-02-24T16:48:19;10.82;;;5.05;;
78116;SDS011;67887;59.082;37.928;2023-02-24T16:50:47;12.40;;;5.70;;
78116;SDS011;67887;59.082;37.928;2023-02-24T16:53:15;12.38;;;5.60;;
78116;SDS011;67887;59.082;37.928;2023-02-24T16:55:44;11.95;;;5.63;;
78116;SDS011;67887;59.082;37.928;2023-02-24T16:58:11;11.82;;;5.72;;
78116;SDS011;67887;59.082;37.928;2023-02-24T17:00:38;12.15;;;5.40;;
78116;SDS011;67887;59.082;37.928;2023-02-24T17:03:10;11.70;;;5.47;;
78116;SDS011;67887;59.082;37.928;2023-02-24T17:05:41;11.13;;;4.70;;
78116;SDS011;67887;59.082;37.928;2023-02-24T17:08:08;13.52;;;5.68;;
78116;SDS011;67887;59.082;37.928;2023-02-24T17:10:36;13.55;;;5.97;;
78116;SDS011;67887;59.082;37.928;2023-02-24T17:13:05;12.38;;;5.22;;
78116;SDS011;67887;59.082;37.928;2023-02-24T17:15:31;11.20;;;5.03;;
78116;SDS011;67887;59.082;37.928;2023-02-24T17:17:57;14.23;;;6.18;;
78116;SDS011;67887;59.082;37.928;2023-02-24T17:20:23;11.45;;;5.60;;
78116;SDS011;67887;59.082;37.928;2023-02-24T17:22:49;13.50;;;6.50;;
78116;SDS011;67887;59.082;37.928;2023-02-24T17:25:16;13.55;;;6.20;;
78116;SDS011;67887;59.082;37.928;2023-02-24T17:27:45;14.85;;;5.88;;
78116;SDS011;67887;59.082;37.928;2023-02-24T17:30:11;13.52;;;6.20;;
78116;SDS011;67887;59.082;37.928;2023-02-24T17:32:39;12.00;;;5.32;;
78116;SDS011;67887;59.082;37.928;2023-02-24T17:35:05;12.50;;;5.45;;
78116;SDS011;67887;59.082;37.928;2023-02-24T17:37:31;12.00;;;5.30;;
78116;SDS011;67887;59.082;37.928;2023-02-24T17:39:58;11.98;;;5.55;;